Manti, Utah
Current Conditions -  °F | °C
As of 4:15 AM on Thursday 23 Oct 2014 (Local Time) from KDTA Reporting Station
Clear Clear  
Wind Chill:   Ceiling: Unl
Heat Index:   Visibility: 10mi
Dew Point: -1°   Wind: 0mph
Humidity: 69%   Direction: NA
Pressure: 30.17"   Gusts: NA
Location:  39.27°N, 111.64°W
Report Text: KDTA 231015Z AUTO 00000KT 10SM CLR 04/M01 A3017 RMK AO1 T00431010
Loading
Personal Weather Stations






























Interactive Weather Map
Tropical Storm Tracking
New forecast layout! Learn more

10-Day Weather Forecast

Advertisements
Track Severe Weather on mobile